This is the latest recevied weather packets stored in our database for station/object HB9KBJ-8. If no packets are shown the sender has not sent any weather packets the latest 1 day(s).
| Time | Temp. | Humidity | Pressure | Rain* | Wind** | Luminosity | Snow |
|---|---|---|---|---|---|---|---|
| 1777995750 | 13.89° C | 76% | 1009 hPa | 0 mm | 0.45 m/s, 145° | 90 W/m² | - |
| 1777995448 | 13.89° C | 79% | 1009 hPa | 0 mm | 1.34 m/s, 142° | 141 W/m² | - |
| 1777995148 | 13.89° C | 78% | 1008.9 hPa | 0 mm | 3.58 m/s, 163° | 158 W/m² | - |
| 1777994847 | 13.89° C | 78% | 1008.9 hPa | 0 mm | 2.68 m/s, 153° | 98 W/m² | - |
| 1777994549 | 13.89° C | 78% | 1008.9 hPa | 0 mm | 0.45 m/s, 155° | 90 W/m² | - |
| 1777994242 | 13.89° C | 78% | 1008.8 hPa | 0 mm | 2.68 m/s, 152° | 86 W/m² | - |
| 1777993937 | 13.89° C | 78% | 1008.8 hPa | 0 mm | 1.34 m/s, 153° | 100 W/m² | - |
| 1777993635 | 13.89° C | 78% | 1008.8 hPa | 0 mm | 0 m/s | 113 W/m² | - |
| 1777993336 | 13.89° C | 77% | 1008.9 hPa | 0 mm | 0.45 m/s, 164° | 127 W/m² | - |
| 1777993050 | 14.44° C | 76% | 1008.8 hPa | 0 mm | 0.45 m/s, 144° | 97 W/m² | - |
| 1777992749 | 14.44° C | 75% | 1008.8 hPa | 0 mm | 0 m/s | 97 W/m² | - |
| 1777992443 | 14.44° C | 74% | 1008.8 hPa | 0 mm | 0 m/s | 114 W/m² | - |
| 1777992137 | 14.44° C | 73% | 1008.8 hPa | 0 mm | 1.34 m/s, 149° | 160 W/m² | - |
| 1777991852 | 14.44° C | 73% | 1008.8 hPa | 0 mm | 0.45 m/s, 162° | 171 W/m² | - |
| 1777991547 | 15° C | 72% | 1008.8 hPa | 0 mm | 0.45 m/s, 109° | 123 W/m² | - |
| 1777991242 | 15.56° C | 74% | 1008.6 hPa | 0 mm | 1.34 m/s, 145° | 93 W/m² | - |
| 1777990937 | 15.56° C | 76% | 1008.5 hPa | 0 mm | 2.24 m/s, 142° | 151 W/m² | - |
| 1777990642 | 16.11° C | 75% | 1008.3 hPa | 0 mm | 0 m/s | 160 W/m² | - |
| 1777990339 | 16.11° C | 75% | 1008.2 hPa | 0 mm | 1.34 m/s, 150° | 192 W/m² | - |
| 1777990052 | 16.11° C | 75% | 1008.2 hPa | 0 mm | 0.89 m/s, 93° | 120 W/m² | - |
| 1777989739 | 16.11° C | 75% | 1009.1 hPa | 0 mm | 0 m/s | 111 W/m² | - |
| 1777989441 | 16.67° C | 76% | 1009.1 hPa | 0 mm | 0 m/s | 220 W/m² | - |
| 1777989136 | 16.11° C | 76% | 1009.1 hPa | 0 mm | 0 m/s | 657 W/m² | - |
| 1777988845 | 16.11° C | 78% | 1009.3 hPa | 0 mm | 0 m/s | 352 W/m² | - |
| 1777988548 | 16.11° C | 79% | 1009.3 hPa | 0 mm | 0.45 m/s, 155° | 529 W/m² | - |
* Rain latest hour (hover to see other rain measurements)
** Current wind speed in m/s (hover to see current wind gust speed)